Time;durP1;ratioP1;P1;durP2;ratioP2;P2;SDS_P1;SDS_P2;PMS_P1;PMS_P2;Temp;Humidity;BMP_temperature;BMP_pressure;BME280_temperature;BME280_humidity;BME280_pressure;Samples;Min_cycle;Max_cycle;Signal;HPM_P1;HPM_P2
2021/12/26 00:00:55;;;;;;;;;53.00;39.33;;;;;4.29;92.31;100282.81;5040776;28;45480;-67
2021/12/26 00:03:25;;;;;;;;;58.33;42.00;;;;;4.29;91.87;100287.16;5055760;28;45502;-71
2021/12/26 00:05:52;;;;;;;;;56.67;42.67;;;;;4.33;92.86;100294.97;5055659;28;45549;-67
2021/12/26 00:08:19;;;;;;;;;60.00;43.00;;;;;4.38;91.99;100301.91;5059478;28;45335;-67
2021/12/26 00:10:47;;;;;;;;;62.33;45.00;;;;;4.38;92.80;100297.53;5062257;28;45322;-67
2021/12/26 00:13:12;;;;;;;;;59.33;42.67;;;;;4.45;92.49;100291.44;5052902;27;45518;-68
2021/12/26 00:15:38;;;;;;;;;58.00;43.67;;;;;4.41;92.25;100289.69;5059462;28;46260;-68
2021/12/26 00:18:03;;;;;;;;;57.33;40.67;;;;;4.47;91.60;100297.50;5061651;27;45414;-67
2021/12/26 00:20:28;;;;;;;;;63.33;44.00;;;;;4.43;92.17;100289.69;5058503;28;45506;-67
2021/12/26 00:22:54;;;;;;;;;59.33;42.33;;;;;4.39;91.35;100290.59;5058005;28;45403;-67
2021/12/26 00:25:19;;;;;;;;;63.00;42.67;;;;;4.41;91.60;100286.25;5057969;28;46294;-68
2021/12/26 00:27:45;;;;;;;;;56.00;40.00;;;;;4.41;91.31;100294.06;5059364;28;45395;-67
2021/12/26 00:30:14;;;;;;;;;55.00;41.00;;;;;4.38;91.60;100294.94;5060123;28;45400;-68
2021/12/26 00:32:41;;;;;;;;;58.67;43.33;;;;;4.38;91.76;100284.50;5059243;28;45597;-68
2021/12/26 00:35:09;;;;;;;;;58.00;43.33;;;;;4.33;91.28;100275.88;5057865;28;45564;-68
2021/12/26 00:37:34;;;;;;;;;54.67;43.00;;;;;4.32;91.60;100279.34;5057972;28;45584;-67
2021/12/26 00:40:00;;;;;;;;;63.67;43.33;;;;;4.18;92.05;100254.22;5058121;28;45797;-68
2021/12/26 00:42:26;;;;;;;;;57.67;43.67;;;;;4.27;92.21;100270.66;5059988;28;45528;-67
2021/12/26 00:44:51;;;;;;;;;56.00;40.00;;;;;4.30;91.81;100265.47;5079129;28;46743;-67
2021/12/26 00:47:17;;;;;;;;;53.00;39.33;;;;;4.23;91.89;100256.78;5074206;27;45442;-68
2021/12/26 00:49:43;;;;;;;;;54.67;41.67;;;;;4.30;92.24;100262.84;5077230;28;45289;-67
2021/12/26 00:52:09;;;;;;;;;57.00;43.33;;;;;4.34;92.25;100267.16;5077236;27;45471;-67
2021/12/26 00:54:35;;;;;;;;;59.00;43.33;;;;;4.34;92.58;100262.81;5071469;27;45739;-67
2021/12/26 00:57:01;;;;;;;;;58.33;44.00;;;;;4.35;92.43;100259.31;5058281;28;45192;-67
2021/12/26 00:59:27;;;;;;;;;65.67;44.33;;;;;4.43;92.29;100261.91;5078424;28;45381;-67
2021/12/26 01:01:54;;;;;;;;;63.33;42.67;;;;;4.40;91.78;100251.50;5079168;27;45228;-67
2021/12/26 01:04:20;;;;;;;;;54.33;40.67;;;;;4.44;91.82;100257.53;5078269;27;45634;-67
2021/12/26 01:06:46;;;;;;;;;49.67;40.67;;;;;4.46;92.03;100261.00;5078531;27;45320;-67
2021/12/26 01:09:16;;;;;;;;;55.33;42.67;;;;;4.22;92.16;100213.34;5078599;27;45315;-67
2021/12/26 01:11:47;;;;;;;;;67.33;41.67;;;;;4.42;91.72;100244.53;5078640;27;45391;-67
2021/12/26 01:14:16;;;;;;;;;54.67;40.00;;;;;4.42;91.78;100241.06;5058242;27;46275;-67
2021/12/26 01:16:44;;;;;;;;;61.67;41.33;;;;;4.51;91.66;100254.03;5057854;28;45225;-67
2021/12/26 01:19:14;;;;;;;;;61.00;41.33;;;;;4.52;90.93;100250.56;5058078;28;45171;-68
2021/12/26 01:21:41;;;;;;;;;52.33;39.67;;;;;4.52;91.31;100250.56;5058277;28;45390;-67
2021/12/26 01:24:09;;;;;;;;;65.33;42.00;;;;;4.51;91.40;100249.66;5076355;28;46513;-67
2021/12/26 01:26:35;;;;;;;;;58.67;41.67;;;;;4.52;91.54;100246.19;5078117;27;45266;-67
2021/12/26 01:29:02;;;;;;;;;55.00;39.67;;;;;4.45;91.69;100235.81;5078271;27;45477;-67
2021/12/26 01:31:27;;;;;;;;;57.00;42.00;;;;;4.25;91.57;100204.66;5078098;27;45337;-67
2021/12/26 01:33:56;;;;;;;;;60.00;40.33;;;;;4.33;91.96;100219.38;5078060;27;45981;-67
2021/12/26 01:36:23;;;;;;;;;65.00;44.00;;;;;4.40;91.72;100235.84;5077871;27;45360;-67
2021/12/26 01:38:48;;;;;;;;;48.67;40.33;;;;;4.48;91.67;100243.63;5059175;28;45250;-66
2021/12/26 01:41:17;;;;;;;;;54.00;41.00;;;;;4.49;92.09;100241.00;5057896;28;45325;-67
2021/12/26 01:43:46;;;;;;;;;55.33;40.00;;;;;4.44;91.49;100224.50;5057538;28;46304;-67
2021/12/26 01:46:13;;;;;;;;;49.00;35.00;;;;;4.49;91.74;100233.19;5057391;28;45259;-66
2021/12/26 01:48:39;;;;;;;;;55.67;42.33;;;;;4.49;92.30;100234.94;5022391;27;1234714;-67
2021/12/26 01:51:04;;;;;;;;;61.67;40.67;;;;;4.26;91.92;100183.81;5058677;28;45218;-66
2021/12/26 01:53:38;;;;;;;;;55.67;40.67;;;;;4.53;91.93;100229.69;5058807;28;46543;-67
2021/12/26 01:56:12;;;;;;;;;52.00;41.33;;;;;4.54;91.80;100225.34;5058768;28;45339;-67
2021/12/26 01:58:39;;;;;;;;;52.67;40.67;;;;;4.54;91.59;100222.72;5058662;28;45376;-66
2021/12/26 02:01:10;;;;;;;;;51.00;39.67;;;;;4.47;92.06;100214.09;5058565;28;45339;-67
2021/12/26 02:03:37;;;;;;;;;48.67;37.00;;;;;4.49;92.28;100225.38;5071812;28;45462;-67
2021/12/26 02:06:05;;;;;;;;;56.00;44.00;;;;;4.45;92.21;100213.22;5077507;28;45317;-67
2021/12/26 02:08:30;;;;;;;;;55.00;40.00;;;;;4.47;92.05;100210.59;5078690;27;45725;-67
2021/12/26 02:10:59;;;;;;;;;44.33;35.33;;;;;4.47;92.93;100203.66;5078827;27;45336;-67
2021/12/26 02:13:25;;;;;;;;;50.67;37.00;;;;;4.42;92.28;100174.16;5078580;27;46650;-67
2021/12/26 02:15:51;;;;;;;;;59.33;41.33;;;;;4.45;91.97;100202.78;5078629;27;45387;-67
2021/12/26 02:18:17;;;;;;;;;63.67;49.00;;;;;4.38;92.76;100215.88;5063956;27;45345;-67
2021/12/26 02:23:31;;;;;;;;;57.00;41.67;;;;;4.45;92.42;100231.47;5058190;28;46157;-67
2021/12/26 02:28:23;;;;;;;;;54.33;40.67;;;;;4.48;93.20;100221.03;5057995;28;45438;-67
2021/12/26 02:30:50;;;;;;;;;56.33;44.00;;;;;4.51;93.19;100226.22;5058457;28;45372;-67
2021/12/26 02:33:16;;;;;;;;;59.33;44.00;;;;;4.48;92.92;100222.78;5069621;28;47460;-67
2021/12/26 02:35:42;;;;;;;;;51.33;43.33;;;;;4.50;93.05;100221.91;5078037;27;45455;-67
2021/12/26 02:38:09;;;;;;;;;63.67;43.33;;;;;4.57;92.70;100224.44;5078340;27;45191;-67
2021/12/26 02:40:35;;;;;;;;;57.33;40.00;;;;;4.53;92.42;100220.97;5078475;27;45384;-67
2021/12/26 02:43:02;;;;;;;;;61.00;44.00;;;;;4.54;93.18;100212.28;5078038;28;45496;-67
2021/12/26 02:45:27;;;;;;;;;55.67;44.67;;;;;4.69;93.19;100221.75;5078050;27;45280;-66
2021/12/26 02:47:53;;;;;;;;;58.33;45.33;;;;;4.77;92.54;100226.94;5077441;27;45366;-67
2021/12/26 02:50:26;;;;;;;;;57.00;42.67;;;;;4.74;92.49;100219.13;5078376;28;45311;-67
2021/12/26 02:52:53;;;;;;;;;60.00;44.67;;;;;4.76;92.05;100218.22;5072056;27;47374;-67
2021/12/26 02:55:21;;;;;;;;;64.67;45.33;;;;;4.75;91.91;100218.22;5073373;27;45574;-67
2021/12/26 02:57:52;;;;;;;;;59.67;42.00;;;;;4.79;92.01;100215.63;5078036;27;45326;-67
2021/12/26 03:00:22;;;;;;;;;57.33;42.33;;;;;4.74;91.71;100196.50;5078024;27;45281;-67
2021/12/26 03:02:52;;;;;;;;;56.67;42.67;;;;;4.78;91.18;100202.56;5077676;27;45454;-67
2021/12/26 03:05:18;;;;;;;;;53.33;41.00;;;;;4.71;91.69;100204.38;5077528;27;45574;-67
2021/12/26 03:07:46;;;;;;;;;56.00;44.33;;;;;4.69;91.67;100200.88;5077836;27;45845;-67
2021/12/26 03:10:21;;;;;;;;;63.67;43.00;;;;;4.68;92.01;100196.56;5058720;27;45261;-67
2021/12/26 03:12:48;;;;;;;;;60.00;44.67;;;;;4.73;92.35;100196.53;5057190;28;47320;-66
2021/12/26 03:15:14;;;;;;;;;58.00;44.33;;;;;4.68;91.76;100199.19;5057293;28;45305;-67
2021/12/26 03:17:40;;;;;;;;;63.00;46.67;;;;;4.66;92.31;100187.88;5058434;28;45541;-67
2021/12/26 03:20:11;;;;;;;;;61.00;45.00;;;;;4.75;92.23;100195.66;5078148;28;45414;-67
2021/12/26 03:22:36;;;;;;;;;55.33;40.67;;;;;4.62;92.31;100171.41;5077490;27;45449;-67
2021/12/26 03:25:04;;;;;;;;;58.67;44.00;;;;;4.77;92.33;100198.25;5077590;27;45278;-67
2021/12/26 03:27:30;;;;;;;;;55.67;40.00;;;;;4.71;92.14;100186.97;5077541;27;45383;-66
2021/12/26 03:29:55;;;;;;;;;50.67;39.00;;;;;4.73;91.97;100189.56;5077461;27;45442;-67
2021/12/26 03:32:22;;;;;;;;;49.67;38.33;;;;;4.71;92.37;100183.50;5076318;27;46524;-67
2021/12/26 03:34:49;;;;;;;;;55.67;41.67;;;;;4.65;92.45;100186.16;5057073;28;45446;-67
2021/12/26 03:37:15;;;;;;;;;59.33;45.00;;;;;4.69;92.73;100193.94;5057142;28;45294;-67
2021/12/26 03:39:40;;;;;;;;;52.00;41.67;;;;;4.75;92.46;100193.03;5057434;28;45319;-67
2021/12/26 03:42:06;;;;;;;;;51.00;42.33;;;;;4.77;92.79;100191.28;5056793;28;46026;-67
2021/12/26 03:44:32;;;;;;;;;65.33;45.00;;;;;4.71;92.46;100186.09;5057171;28;45608;-67
2021/12/26 03:46:57;;;;;;;;;59.33;44.00;;;;;4.80;93.08;100195.59;5056929;28;45546;-67
2021/12/26 03:49:23;;;;;;;;;59.33;39.67;;;;;4.80;92.50;100183.41;5074048;28;45583;-67
2021/12/26 03:51:48;;;;;;;;;61.67;44.67;;;;;4.76;92.29;100173.88;5056848;28;46472;-67
2021/12/26 03:54:14;;;;;;;;;60.67;43.00;;;;;4.76;92.61;100171.28;5056769;28;45492;-67
2021/12/26 03:56:39;;;;;;;;;57.00;44.00;;;;;4.79;92.93;100173.88;5057250;28;45308;-67
2021/12/26 03:59:05;;;;;;;;;60.67;39.00;;;;;4.75;92.97;100171.28;5057102;28;45535;-67
2021/12/26 04:01:31;;;;;;;;;55.33;40.00;;;;;4.67;93.01;100150.50;5057008;28;46300;-67
2021/12/26 04:03:56;;;;;;;;;54.00;40.67;;;;;4.76;93.02;100165.19;5057234;28;45360;-67
2021/12/26 04:06:21;;;;;;;;;60.33;40.00;;;;;4.75;93.04;100153.03;5063310;27;45550;-67
2021/12/26 04:08:47;;;;;;;;;55.00;42.33;;;;;4.74;93.32;100151.31;5057157;28;45804;-67
2021/12/26 04:11:13;;;;;;;;;61.67;43.00;;;;;4.80;93.06;100151.25;5056623;28;47149;-67
2021/12/26 04:13:39;;;;;;;;;56.67;42.67;;;;;4.73;93.25;100145.22;5067697;28;45395;-67
2021/12/26 04:16:04;;;;;;;;;55.00;39.67;;;;;4.76;93.57;100150.41;5077033;27;45398;-67
2021/12/26 04:18:30;;;;;;;;;52.33;40.33;;;;;4.73;93.71;100147.84;5077289;27;45387;-67
2021/12/26 04:20:55;;;;;;;;;61.67;45.00;;;;;4.79;93.36;100158.22;5076832;27;45269;-67
2021/12/26 04:23:21;;;;;;;;;62.67;45.33;;;;;4.79;93.57;100157.34;5076967;27;45315;-67
2021/12/26 04:25:46;;;;;;;;;53.00;40.00;;;;;4.85;93.71;100160.78;5077130;27;45356;-67
2021/12/26 04:28:12;;;;;;;;;56.00;43.33;;;;;4.86;93.49;100159.03;5076591;27;45468;-67
2021/12/26 04:30:38;;;;;;;;;59.67;40.33;;;;;4.89;93.03;100145.94;5079176;28;45526;-67
2021/12/26 04:33:04;;;;;;;;;45.67;36.33;;;;;4.87;93.21;100143.34;5064488;27;45408;-67
2021/12/26 04:35:30;;;;;;;;;61.00;40.00;;;;;4.87;93.65;100152.94;5060020;28;45148;-67
2021/12/26 04:37:56;;;;;;;;;62.67;43.33;;;;;4.86;93.86;100153.81;5060021;28;45365;-67
2021/12/26 04:40:21;;;;;;;;;50.00;37.33;;;;;4.87;93.91;100143.34;5059650;28;46572;-67
2021/12/26 04:42:47;;;;;;;;;54.67;44.67;;;;;4.92;94.08;100147.69;5059745;28;45429;-67
2021/12/26 04:45:14;;;;;;;;;56.67;39.67;;;;;4.88;93.61;100136.41;5068607;28;45442;-67
2021/12/26 04:47:41;;;;;;;;;60.67;43.00;;;;;4.93;94.04;100145.06;5080093;27;45347;-67
2021/12/26 04:50:12;;;;;;;;;51.33;39.67;;;;;4.93;93.87;100136.38;5079540;27;46476;-67
2021/12/26 04:52:39;;;;;;;;;61.33;42.33;;;;;4.95;93.56;100132.00;5079636;27;45374;-67
2021/12/26 04:55:05;;;;;;;;;55.33;41.00;;;;;4.97;93.80;100143.28;5079589;27;45407;-67
2021/12/26 04:57:31;;;;;;;;;57.33;40.67;;;;;4.85;94.32;100126.88;5080141;27;45225;-67
2021/12/26 04:59:57;;;;;;;;;54.00;41.33;;;;;4.95;94.23;100143.31;5079668;27;45381;-67
2021/12/26 05:02:22;;;;;;;;;60.00;42.67;;;;;4.94;94.68;100144.19;5079566;28;45178;-67
2021/12/26 05:04:48;;;;;;;;;51.00;41.67;;;;;4.98;94.84;100145.00;5079805;27;45411;-67
2021/12/26 05:07:14;;;;;;;;;59.00;38.00;;;;;4.98;94.45;100145.88;5079788;27;45544;-67
2021/12/26 05:09:39;;;;;;;;;52.67;36.33;;;;;4.75;94.01;100096.53;5076656;27;47360;-67
2021/12/26 05:12:06;;;;;;;;;56.67;43.00;;;;;4.93;94.22;100132.00;5079477;27;45468;-67
2021/12/26 05:14:31;;;;;;;;;53.00;40.33;;;;;5.02;94.18;100136.28;5079500;27;45305;-67
2021/12/26 05:16:56;;;;;;;;;49.00;37.67;;;;;4.91;94.85;100123.34;5073408;27;45424;-67
2021/12/26 05:19:22;;;;;;;;;59.33;43.00;;;;;4.88;95.08;100120.78;5059254;28;46711;-67
2021/12/26 05:21:47;;;;;;;;;67.67;48.67;;;;;4.93;94.75;100110.28;5059102;28;45388;-67
2021/12/26 05:24:12;;;;;;;;;42.33;36.67;;;;;5.03;95.00;100143.22;5059287;28;45325;-67
2021/12/26 05:26:38;;;;;;;;;52.00;38.67;;;;;5.05;95.17;100133.63;5059270;28;45803;-67
2021/12/26 05:29:03;;;;;;;;;60.33;42.33;;;;;5.00;95.02;100119.78;5059047;28;46476;-67
2021/12/26 05:31:28;;;;;;;;;41.00;36.33;;;;;5.04;95.07;100134.53;5058985;28;45366;-67
2021/12/26 05:33:54;;;;;;;;;56.33;40.00;;;;;5.04;95.65;100118.88;5059289;28;45429;-67
2021/12/26 05:36:19;;;;;;;;;56.67;42.00;;;;;4.99;95.08;100105.00;5059106;28;45369;-67
2021/12/26 05:38:46;;;;;;;;;45.33;38.33;;;;;5.11;94.73;100115.31;5058883;28;45624;-67
2021/12/26 05:41:11;;;;;;;;;54.33;39.33;;;;;5.09;95.01;100111.84;5057563;28;45274;-67
2021/12/26 05:43:37;;;;;;;;;54.67;39.00;;;;;5.13;94.72;100118.75;5058869;28;45323;-67
2021/12/26 05:46:02;;;;;;;;;43.67;35.33;;;;;4.87;94.68;100072.94;5060177;28;45245;-66
2021/12/26 05:48:27;;;;;;;;;58.33;41.67;;;;;5.12;95.41;100109.19;5058641;28;45283;-67
2021/12/26 05:50:55;;;;;;;;;55.00;42.00;;;;;5.10;95.01;100097.03;5058620;28;45318;-67
2021/12/26 05:53:20;;;;;;;;;58.00;42.00;;;;;5.15;95.32;100110.91;5061637;28;45419;-66
2021/12/26 05:55:46;;;;;;;;;57.00;40.33;;;;;5.13;95.72;100110.09;5078850;27;45320;-67
2021/12/26 05:58:11;;;;;;;;;52.67;39.33;;;;;5.01;96.15;100087.56;5078594;27;45617;-66
2021/12/26 06:00:37;;;;;;;;;61.67;46.00;;;;;5.11;95.83;100104.88;5070492;27;45492;-66
2021/12/26 06:03:02;;;;;;;;;56.33;44.33;;;;;5.05;95.86;100092.75;5070379;28;45999;-67
2021/12/26 06:05:28;;;;;;;;;59.67;42.33;;;;;5.14;96.02;100103.97;5058472;28;45363;-69
2021/12/26 06:07:53;;;;;;;;;59.00;42.00;;;;;5.07;95.73;100087.53;5058045;28;45365;-69
2021/12/26 06:10:19;;;;;;;;;56.00;44.33;;;;;5.06;95.87;100084.03;5058192;28;45405;-70
2021/12/26 06:12:44;;;;;;;;;48.67;38.67;;;;;5.17;95.18;100094.38;5058152;28;45305;-67
2021/12/26 06:15:10;;;;;;;;;59.33;42.00;;;;;5.19;95.27;100102.19;5058435;28;45386;-68
2021/12/26 06:17:36;;;;;;;;;58.00;43.33;;;;;5.18;95.41;100093.47;5056095;28;45494;-67
2021/12/26 06:20:06;;;;;;;;;52.00;38.00;;;;;5.12;95.92;100080.50;5053551;28;45550;-67
2021/12/26 06:22:31;;;;;;;;;63.67;46.33;;;;;5.14;95.67;100091.78;5050924;28;45429;-67
2021/12/26 06:24:57;;;;;;;;;59.67;43.33;;;;;5.12;95.91;100083.09;5058371;28;45269;-67
2021/12/26 06:27:22;;;;;;;;;56.67;42.00;;;;;5.13;96.03;100086.59;5077882;28;45605;-68
2021/12/26 06:29:48;;;;;;;;;60.33;42.67;;;;;5.03;95.58;100073.63;5078314;27;45346;-67
2021/12/26 06:32:13;;;;;;;;;61.67;44.33;;;;;5.17;96.36;100090.88;5078496;27;45484;-67
2021/12/26 06:34:39;;;;;;;;;59.67;42.33;;;;;5.14;96.30;100088.31;5078682;27;45317;-67
2021/12/26 06:37:04;;;;;;;;;61.33;46.00;;;;;5.15;95.73;100084.81;5078148;27;46538;-68
2021/12/26 06:39:30;;;;;;;;;48.33;38.67;;;;;5.18;96.24;100095.22;5078240;27;45410;-68
2021/12/26 06:41:55;;;;;;;;;59.33;41.00;;;;;5.18;96.37;100090.00;5059914;27;45310;-68
2021/12/26 06:44:21;;;;;;;;;60.33;42.67;;;;;5.17;97.28;100080.44;5058289;28;45345;-68
2021/12/26 06:46:46;;;;;;;;;58.67;39.33;;;;;5.21;96.30;100093.47;5057821;28;46067;-69
2021/12/26 06:49:16;;;;;;;;;58.33;44.00;;;;;5.22;96.92;100084.72;5057528;28;45170;-68
2021/12/26 06:51:41;;;;;;;;;53.00;42.67;;;;;5.21;96.96;100080.41;5057547;28;45515;-68
2021/12/26 06:54:06;;;;;;;;;69.33;42.33;;;;;5.03;96.60;100044.94;5057765;28;45312;-69
2021/12/26 06:56:32;;;;;;;;;65.67;44.67;;;;;5.21;96.86;100076.91;5057692;28;45593;-69
2021/12/26 06:58:57;;;;;;;;;62.67;44.00;;;;;5.20;96.84;100073.44;5057644;28;45392;-68
2021/12/26 07:01:23;;;;;;;;;61.00;45.67;;;;;5.23;97.08;100077.78;5057935;28;45516;-68
2021/12/26 07:03:48;;;;;;;;;54.67;42.00;;;;;5.24;96.76;100082.09;5057915;28;45340;-68
2021/12/26 07:06:13;;;;;;;;;54.33;41.00;;;;;5.21;97.04;100071.69;5057456;28;46420;-69
2021/12/26 07:08:39;;;;;;;;;65.00;47.67;;;;;5.30;97.07;100091.59;5057357;28;45430;-68
2021/12/26 07:11:04;;;;;;;;;45.33;36.33;;;;;5.26;97.18;100082.06;5057766;28;45250;-68
2021/12/26 07:13:30;;;;;;;;;62.00;42.00;;;;;5.26;97.23;100079.47;5071164;28;45580;-68
2021/12/26 07:15:55;;;;;;;;;53.00;39.00;;;;;5.30;97.57;100087.25;5077540;27;46062;-68
2021/12/26 07:18:21;;;;;;;;;60.33;40.67;;;;;5.32;97.65;100084.63;5077982;27;45329;-68
2021/12/26 07:20:46;;;;;;;;;62.33;45.67;;;;;5.29;97.62;100072.47;5077809;27;45245;-68
2021/12/26 07:23:12;;;;;;;;;57.00;40.00;;;;;5.27;97.90;100075.97;5077928;27;45398;-68
2021/12/26 07:25:37;;;;;;;;;60.00;43.00;;;;;5.34;97.63;100075.88;5077514;27;46291;-68
2021/12/26 07:28:05;;;;;;;;;59.67;43.67;;;;;5.40;97.55;100082.78;5071473;27;45210;-68
2021/12/26 07:30:31;;;;;;;;;59.67;41.00;;;;;5.39;97.62;100078.47;5075377;28;45407;-68
2021/12/26 07:32:56;;;;;;;;;57.00;40.00;;;;;5.40;97.77;100081.06;5077495;27;45426;-67
2021/12/26 07:35:23;;;;;;;;;53.33;43.33;;;;;5.38;97.94;100071.50;5077046;27;46321;-68
2021/12/26 07:37:48;;;;;;;;;60.00;43.00;;;;;5.39;98.22;100073.25;5077295;27;45406;-68
2021/12/26 07:40:14;;;;;;;;;52.00;41.00;;;;;5.39;98.14;100073.25;5076961;27;45329;-67
2021/12/26 07:42:41;;;;;;;;;51.67;39.33;;;;;5.41;98.47;100069.69;5077728;27;45505;-67
2021/12/26 07:45:06;;;;;;;;;57.67;39.67;;;;;5.33;97.82;100055.91;5077172;27;47218;-68
2021/12/26 07:47:32;;;;;;;;;59.33;46.00;;;;;5.19;98.59;100031.72;5073146;27;45333;-68
2021/12/26 07:49:57;;;;;;;;;63.67;42.67;;;;;5.49;98.34;100072.25;5057358;28;45307;-68
2021/12/26 07:52:23;;;;;;;;;55.33;43.00;;;;;5.46;98.73;100067.06;5056846;28;45217;-68
2021/12/26 07:54:49;;;;;;;;;56.00;43.33;;;;;5.49;98.75;100063.53;5056859;28;46485;-68
2021/12/26 07:57:14;;;;;;;;;57.00;43.00;;;;;5.44;98.25;100055.75;5056853;28;45155;-68
2021/12/26 07:59:40;;;;;;;;;53.00;40.00;;;;;5.55;98.85;100082.59;5057055;28;45452;-67
2021/12/26 08:02:08;;;;;;;;;62.33;45.67;;;;;5.52;99.48;100072.19;5057361;28;45158;-68
2021/12/26 08:04:34;;;;;;;;;61.33;43.00;;;;;5.57;99.12;100079.97;5057443;28;45626;-68
2021/12/26 08:07:00;;;;;;;;;57.00;38.67;;;;;5.51;98.84;100070.44;5068411;28;45510;-68
2021/12/26 08:09:26;;;;;;;;;55.67;42.00;;;;;5.60;99.42;100081.69;5080389;27;45255;-67
2021/12/26 08:11:52;;;;;;;;;59.33;40.33;;;;;5.65;99.18;100083.34;5080763;27;45799;-68
2021/12/26 08:14:18;;;;;;;;;54.33;37.33;;;;;5.69;99.60;100090.25;5080632;27;46277;-68
2021/12/26 08:16:43;;;;;;;;;59.67;42.33;;;;;5.71;99.04;100087.63;5080515;27;45300;-68
2021/12/26 08:19:09;;;;;;;;;60.00;44.00;;;;;5.59;98.88;100059.91;5080719;27;45412;-68
2021/12/26 08:21:35;;;;;;;;;56.33;38.67;;;;;5.74;99.14;100077.97;5080300;28;45429;-68
2021/12/26 08:24:01;;;;;;;;;67.00;43.67;;;;;5.79;99.14;100080.53;5080242;28;45429;-68
2021/12/26 08:26:27;;;;;;;;;58.33;42.67;;;;;5.81;99.02;100090.94;5080095;27;45411;-69
2021/12/26 08:28:52;;;;;;;;;55.00;39.33;;;;;5.84;98.84;100089.19;5080280;27;45848;-69
2021/12/26 08:31:19;;;;;;;;;49.67;38.00;;;;;5.78;99.09;100068.38;5080780;27;45419;-68
2021/12/26 08:33:45;;;;;;;;;47.33;37.00;;;;;5.80;99.27;100074.44;5080081;27;45406;-67
2021/12/26 08:36:10;;;;;;;;;55.00;40.00;;;;;5.91;99.41;100093.44;5074621;27;45328;-69
2021/12/26 08:38:37;;;;;;;;;54.00;39.00;;;;;5.96;98.44;100090.75;5080523;28;45763;-67
2021/12/26 08:41:03;;;;;;;;;44.00;36.33;;;;;5.91;98.31;100077.75;5080266;27;45380;-68
2021/12/26 08:43:29;;;;;;;;;51.00;41.00;;;;;6.00;99.28;100086.34;5079958;27;46251;-68
2021/12/26 08:45:54;;;;;;;;;49.67;36.00;;;;;6.04;99.09;100083.69;5080084;27;45289;-68
2021/12/26 08:48:20;;;;;;;;;58.33;43.33;;;;;6.06;99.62;100084.53;5079568;27;45260;-68
2021/12/26 08:50:45;;;;;;;;;55.67;36.33;;;;;6.05;99.86;100074.94;5080279;27;45490;-68
2021/12/26 08:53:11;;;;;;;;;49.00;40.00;;;;;6.08;99.72;100079.28;5079610;27;46334;-68
2021/12/26 08:55:37;;;;;;;;;51.67;39.33;;;;;6.12;99.76;100085.34;5079979;28;45400;-68
2021/12/26 08:58:06;;;;;;;;;52.67;34.33;;;;;6.17;99.70;100087.00;5080031;27;45358;-68
2021/12/26 09:00:32;;;;;;;;;52.33;38.33;;;;;6.12;100.00;100075.72;5078571;27;45346;-67
2021/12/26 09:02:58;;;;;;;;;47.67;38.67;;;;;6.19;100.00;100098.28;5068910;27;46624;-68
2021/12/26 09:05:24;;;;;;;;;51.00;36.33;;;;;6.19;100.00;100085.22;5059236;28;45266;-68
2021/12/26 09:07:50;;;;;;;;;48.67;41.00;;;;;6.21;100.00;100083.44;5063277;28;45439;-68
2021/12/26 09:10:15;;;;;;;;;49.33;37.00;;;;;6.30;100.00;100087.63;5080113;28;45380;-68
2021/12/26 09:12:42;;;;;;;;;47.67;38.00;;;;;6.32;100.00;100087.63;5079418;27;46389;-68
2021/12/26 09:15:09;;;;;;;;;53.33;35.67;;;;;6.40;100.00;100089.22;5079314;27;45355;-68
2021/12/26 09:17:35;;;;;;;;;46.67;35.33;;;;;6.42;100.00;100092.69;5079423;27;45269;-68
2021/12/26 09:20:00;;;;;;;;;43.00;36.33;;;;;6.42;100.00;100082.22;5079713;27;45274;-68
2021/12/26 09:22:26;;;;;;;;;39.33;33.67;;;;;6.39;100.00;100084.91;5079278;28;46171;-68
2021/12/26 09:24:52;;;;;;;;;50.33;35.67;;;;;6.51;100.00;100101.28;5079295;27;45218;-68
2021/12/26 09:27:18;;;;;;;;;53.00;33.33;;;;;6.53;100.00;100100.34;5079676;28;45317;-68
2021/12/26 09:29:43;;;;;;;;;39.00;33.67;;;;;6.53;99.60;100087.25;5079531;27;45565;-67
2021/12/26 09:32:09;;;;;;;;;48.33;31.67;;;;;6.58;99.85;100093.28;5079260;27;45540;-67
2021/12/26 09:34:35;;;;;;;;;47.00;33.33;;;;;6.63;100.00;100093.22;5079505;27;45346;-67
2021/12/26 09:37:03;;;;;;;;;36.67;32.67;;;;;6.53;100.00;100076.81;5077914;27;45868;-67
2021/12/26 09:39:29;;;;;;;;;36.67;33.67;;;;;6.57;100.00;100078.47;5075946;28;45536;-68
2021/12/26 09:41:54;;;;;;;;;47.00;35.00;;;;;6.74;100.00;100101.75;5078557;27;46581;-68
2021/12/26 09:44:20;;;;;;;;;39.00;35.33;;;;;6.78;100.00;100100.81;5058512;28;45257;-68
2021/12/26 09:46:46;;;;;;;;;40.00;32.67;;;;;6.78;100.00;100095.56;5059052;28;45242;-68
2021/12/26 09:49:12;;;;;;;;;45.33;34.00;;;;;6.86;100.00;100110.28;5058721;28;45392;-68
2021/12/26 09:51:37;;;;;;;;;42.00;34.00;;;;;6.83;100.00;100102.47;5063402;28;46230;-68
2021/12/26 09:54:04;;;;;;;;;41.67;29.33;;;;;6.84;100.00;100081.53;5078961;27;45248;-68
2021/12/26 09:56:30;;;;;;;;;36.00;33.67;;;;;6.73;100.00;100052.91;5079140;27;45402;-68
2021/12/26 09:58:57;;;;;;;;;30.33;23.00;;;;;7.02;100.00;100095.16;5078865;27;45474;-68
2021/12/26 10:01:34;;;;;;;;;39.33;33.00;;;;;7.04;100.00;100088.97;5065864;27;45339;-69
2021/12/26 10:04:14;;;;;;;;;41.33;31.67;;;;;7.10;100.00;100091.50;5058279;28;45344;-69
2021/12/26 10:06:39;;;;;;;;;37.33;31.67;;;;;7.06;100.00;100075.88;5058638;28;45272;-69
2021/12/26 10:09:10;;;;;;;;;36.00;29.33;;;;;7.18;100.00;100086.09;5063047;28;45258;-69
2021/12/26 10:11:42;;;;;;;;;33.00;29.33;;;;;7.22;100.00;100086.91;5063597;27;46478;-69
2021/12/26 10:14:11;;;;;;;;;38.00;27.67;;;;;7.24;100.00;100079.88;5058342;28;45514;-69
2021/12/26 10:16:42;;;;;;;;;37.67;29.67;;;;;7.19;100.00;100069.50;5057869;28;45449;-69
2021/12/26 10:19:09;;;;;;;;;32.00;26.00;;;;;7.30;100.00;100074.53;5058312;28;45823;-69
2021/12/26 10:21:37;;;;;;;;;41.67;23.33;;;;;7.34;100.00;100080.56;5058207;28;45538;-69
2021/12/26 10:24:06;;;;;;;;;35.67;27.67;;;;;7.36;100.00;100074.38;5058083;28;45221;-70
2021/12/26 10:26:35;;;;;;;;;27.50;24.00;;;;;7.42;100.00;100073.41;5057946;28;45364;-70
2021/12/26 10:29:09;;;;;;;;;37.00;28.00;;;;;7.48;100.00;100073.31;5057714;28;45151;-70
2021/12/26 10:31:36;;;;;;;;;23.67;19.33;;;;;7.50;100.00;100067.09;5057884;28;46078;-70
2021/12/26 10:34:02;;;;;;;;;29.67;24.67;;;;;7.56;100.00;100065.28;5058041;28;45482;-67
2021/12/26 10:36:28;;;;;;;;;27.67;26.33;;;;;7.58;100.00;100058.22;5057971;28;45430;-69
2021/12/26 10:39:12;;;;;;;;;30.00;28.33;;;;;7.63;100.00;100057.22;5070615;28;45628;-69
2021/12/26 10:41:47;;;;;;;;;37.33;29.33;;;;;7.65;100.00;100058.09;5057453;28;46488;-69
2021/12/26 10:44:25;;;;;;;;;35.67;28.00;;;;;7.66;100.00;100054.53;5057519;28;45263;-68
2021/12/26 10:46:58;;;;;;;;;26.33;24.00;;;;;7.65;100.00;100058.09;5057309;28;45376;-68
2021/12/26 10:49:34;;;;;;;;;29.67;24.33;;;;;7.66;100.00;100044.06;5056485;28;45493;-69
2021/12/26 10:52:01;;;;;;;;;23.67;23.00;;;;;7.69;100.00;100042.28;5056126;28;45290;-69
2021/12/26 10:54:31;;;;;;;;;26.00;24.67;;;;;7.75;100.00;100048.25;5056757;28;45465;-69
2021/12/26 10:57:04;;;;;;;;;29.67;20.67;;;;;7.74;100.00;100046.53;5057836;28;45407;-69
2021/12/26 10:59:29;;;;;;;;;28.00;23.00;;;;;7.77;100.00;100045.56;5056337;28;45532;-69
2021/12/26 11:01:56;;;;;;;;;28.67;26.67;;;;;7.77;100.00;100029.84;5056938;28;46400;-69
2021/12/26 11:04:23;;;;;;;;;27.67;23.33;;;;;7.82;100.00;100034.09;5056818;28;45467;-69
2021/12/26 11:07:10;;;;;;;;;31.67;25.00;;;;;7.83;100.00;100038.44;5057643;28;45322;-69
2021/12/26 11:09:36;;;;;;;;;22.33;21.33;;;;;7.84;100.00;100023.56;5057298;28;45540;-69
2021/12/26 11:12:07;;;;;;;;;23.00;19.33;;;;;7.86;100.00;100024.41;5057043;28;46510;-70
2021/12/26 11:14:53;;;;;;;;;27.33;21.00;;;;;7.87;100.00;100014.78;5057357;28;45242;-70
2021/12/26 11:17:37;;;;;;;;;42.00;27.67;;;;;7.91;100.00;100022.53;5057502;28;45325;-70